Time;durP1;ratioP1;P1;durP2;ratioP2;P2;SDS_P1;SDS_P2;PMS_P1;PMS_P2;Temp;Humidity;BMP_temperature;BMP_pressure;BME280_temperature;BME280_humidity;BME280_pressure;Samples;Min_cycle;Max_cycle;Signal;HPM_P1;HPM_P2
2023/04/11 00:01:42;;;;;;;0.70;0.70;;;;;12.20;95628.00;;;;5034073;28;20200;-64
2023/04/11 00:04:10;;;;;;;4.57;1.00;;;;;12.30;95615.00;;;;5033487;28;20213;-62
2023/04/11 00:06:37;;;;;;;1.10;1.10;;;;;12.10;95608.00;;;;5033213;28;20193;-65
2023/04/11 00:09:05;;;;;;;0.70;0.70;;;;;12.10;95595.00;;;;5032823;28;20239;-63
2023/04/11 00:11:32;;;;;;;1.00;0.97;;;;;11.90;95584.00;;;;5032975;28;20200;-65
2023/04/11 00:14:00;;;;;;;0.57;0.57;;;;;12.00;95591.00;;;;5033176;28;20215;-64
2023/04/11 00:16:27;;;;;;;0.73;0.73;;;;;12.10;95576.00;;;;5048386;28;20201;-63
2023/04/11 00:18:56;;;;;;;0.70;0.70;;;;;12.10;95580.00;;;;5033398;28;20189;-64
2023/04/11 00:21:23;;;;;;;0.97;0.97;;;;;12.20;95586.00;;;;5048491;28;20224;-64
2023/04/11 00:23:52;;;;;;;1.10;1.10;;;;;12.20;95586.00;;;;5033141;28;20580;-64
2023/04/11 00:26:20;;;;;;;0.50;0.50;;;;;12.20;95569.00;;;;5033008;28;20200;-64
2023/04/11 00:28:47;;;;;;;0.70;0.70;;;;;12.10;95550.00;;;;5048361;28;20189;-65
2023/04/11 00:31:15;;;;;;;0.67;0.67;;;;;12.10;95536.00;;;;5033265;28;20616;-64
2023/04/11 00:33:42;;;;;;;1.07;1.07;;;;;12.20;95544.00;;;;5032811;28;20197;-64
2023/04/11 00:36:11;;;;;;;0.63;0.63;;;;;12.00;95585.00;;;;5032936;28;20201;-64
2023/04/11 00:38:39;;;;;;;0.70;0.70;;;;;12.00;95589.00;;;;5032808;28;20224;-63
2023/04/11 00:41:07;;;;;;;0.70;0.70;;;;;12.00;95585.00;;;;5033100;28;20258;-64
2023/04/11 00:43:34;;;;;;;0.70;0.70;;;;;12.10;95569.00;;;;5033111;28;20196;-64
2023/04/11 00:46:02;;;;;;;0.60;0.60;;;;;12.00;95571.00;;;;5032962;28;20196;-64
2023/04/11 00:48:30;;;;;;;0.87;0.87;;;;;12.10;95557.00;;;;5032816;28;20189;-64
2023/04/11 00:50:57;;;;;;;0.60;0.60;;;;;12.10;95560.00;;;;5032745;28;20757;-63
2023/04/11 00:53:31;;;;;;;0.60;0.60;;;;;12.00;95557.00;;;;5033069;28;20189;-63
2023/04/11 00:55:59;;;;;;;0.50;0.50;;;;;12.10;95561.00;;;;5033244;28;20238;-64
2023/04/11 00:58:27;;;;;;;0.90;0.90;;;;;12.10;95567.00;;;;5032680;28;20216;-64
2023/04/11 01:00:54;;;;;;;0.67;0.67;;;;;12.20;95581.00;;;;5032671;28;20200;-64
2023/04/11 01:03:22;;;;;;;0.60;0.60;;;;;12.00;95576.00;;;;5032700;28;20189;-64
2023/04/11 01:05:52;;;;;;;0.80;0.80;;;;;12.00;95580.00;;;;5032608;28;20271;-64
2023/04/11 01:08:21;;;;;;;0.50;0.50;;;;;12.10;95581.00;;;;5032919;28;20213;-64
2023/04/11 01:10:50;;;;;;;0.60;0.60;;;;;12.10;95584.00;;;;5032840;28;20714;-63
2023/04/11 01:13:18;;;;;;;0.73;0.73;;;;;11.90;95592.00;;;;5032886;28;20200;-63
2023/04/11 01:15:45;;;;;;;1.00;1.00;;;;;11.80;95610.00;;;;5032420;28;20224;-63
2023/04/11 01:18:14;;;;;;;0.50;0.50;;;;;11.90;95620.00;;;;5032393;28;20598;-63
2023/04/11 01:20:41;;;;;;;4.03;0.90;;;;;11.80;95614.00;;;;5032990;28;20224;-63
2023/04/11 01:23:10;;;;;;;0.73;0.73;;;;;11.60;95613.00;;;;5036295;28;20287;-64
2023/04/11 01:25:39;;;;;;;0.80;0.80;;;;;11.50;95617.00;;;;5036030;28;20715;-63
2023/04/11 01:28:08;;;;;;;0.50;0.50;;;;;11.50;95616.00;;;;5036337;28;20193;-64
2023/04/11 01:30:35;;;;;;;0.70;0.70;;;;;11.40;95620.00;;;;5036077;28;20263;-64
2023/04/11 01:33:02;;;;;;;0.50;0.50;;;;;11.20;95609.00;;;;5036095;28;20640;-64
2023/04/11 01:35:30;;;;;;;0.93;0.93;;;;;11.00;95600.00;;;;5035701;28;20220;-63
2023/04/11 01:37:58;;;;;;;0.70;0.70;;;;;10.50;95605.00;;;;5035827;28;20221;-63
2023/04/11 01:40:26;;;;;;;0.47;0.47;;;;;10.50;95589.00;;;;5035853;28;20251;-64
2023/04/11 01:42:55;;;;;;;1.07;1.07;;;;;10.60;95599.00;;;;5051178;28;20649;-63
2023/04/11 01:45:23;;;;;;;0.80;0.80;;;;;10.60;95600.00;;;;5035628;28;20227;-63
2023/04/11 01:47:53;;;;;;;0.60;0.60;;;;;10.50;95610.00;;;;5035734;28;20192;-63
2023/04/11 01:50:20;;;;;;;0.60;0.60;;;;;10.40;95619.00;;;;5035544;28;20731;-63
2023/04/11 01:52:49;;;;;;;0.60;0.60;;;;;10.30;95632.00;;;;5050908;28;20193;-62
2023/04/11 01:55:16;;;;;;;0.50;0.50;;;;;10.30;95640.00;;;;5035532;28;20216;-63
2023/04/11 01:57:44;;;;;;;0.50;0.50;;;;;10.20;95635.00;;;;5035345;28;20219;-64
2023/04/11 02:00:14;;;;;;;2.30;1.30;;;;;10.00;95633.00;;;;5035604;28;20193;-63
2023/04/11 02:02:41;;;;;;;0.80;0.80;;;;;10.00;95640.00;;;;5035615;28;20216;-62
2023/04/11 02:05:10;;;;;;;0.50;0.50;;;;;10.20;95640.00;;;;5035507;28;20583;-63
2023/04/11 02:07:37;;;;;;;0.70;0.70;;;;;10.10;95645.00;;;;5035421;28;20192;-64
2023/04/11 02:10:06;;;;;;;0.50;0.50;;;;;10.00;95665.00;;;;5035474;28;20201;-64
2023/04/11 02:12:33;;;;;;;0.50;0.50;;;;;9.90;95649.00;;;;5035164;28;20196;-64
2023/04/11 02:15:00;;;;;;;0.60;0.60;;;;;9.80;95634.00;;;;5035198;28;20259;-63
2023/04/11 02:17:30;;;;;;;0.60;0.60;;;;;9.90;95648.00;;;;5034976;28;20220;-63
2023/04/11 02:19:58;;;;;;;0.43;0.43;;;;;9.70;95631.00;;;;5035271;28;20251;-64
2023/04/11 02:22:25;;;;;;;0.50;0.50;;;;;9.70;95613.00;;;;5035258;28;20200;-63
2023/04/11 02:24:52;;;;;;;0.53;0.53;;;;;9.70;95626.00;;;;5034941;28;20284;-64
2023/04/11 02:27:20;;;;;;;0.50;0.50;;;;;9.80;95630.00;;;;5034993;28;20208;-64
2023/04/11 02:29:47;;;;;;;0.50;0.50;;;;;9.70;95636.00;;;;5034851;28;20197;-64
2023/04/11 02:32:15;;;;;;;0.50;0.50;;;;;9.50;95642.00;;;;5034288;28;20240;-62
2023/04/11 02:34:43;;;;;;;6.60;0.90;;;;;9.70;95651.00;;;;5034551;28;20209;-63
2023/04/11 02:37:11;;;;;;;0.50;0.50;;;;;9.50;95656.00;;;;5035001;28;20193;-63
2023/04/11 02:39:38;;;;;;;0.50;0.50;;;;;9.20;95652.00;;;;5035199;28;20185;-63
2023/04/11 02:42:06;;;;;;;0.60;0.60;;;;;9.20;95640.00;;;;5034661;28;20192;-63
2023/04/11 02:44:33;;;;;;;0.60;0.60;;;;;9.10;95659.00;;;;5034559;28;20598;-64
2023/04/11 02:47:01;;;;;;;0.67;0.67;;;;;9.10;95667.00;;;;5034573;28;20197;-64
2023/04/11 02:49:28;;;;;;;0.60;0.60;;;;;9.10;95646.00;;;;5034527;28;20193;-64
2023/04/11 02:51:57;;;;;;;0.50;0.50;;;;;9.00;95631.00;;;;5034402;28;20204;-63
2023/04/11 02:54:24;;;;;;;0.53;0.53;;;;;8.90;95637.00;;;;5034275;28;20216;-64
2023/04/11 02:56:54;;;;;;;0.50;0.50;;;;;8.90;95637.00;;;;5034312;28;20196;-62
2023/04/11 02:59:22;;;;;;;0.60;0.60;;;;;9.10;95631.00;;;;5034284;28;20708;-64
2023/04/11 03:01:49;;;;;;;0.70;0.70;;;;;9.00;95635.00;;;;5034227;28;20208;-64
2023/04/11 03:04:16;;;;;;;0.50;0.50;;;;;9.10;95642.00;;;;5034023;28;20260;-63
2023/04/11 03:06:44;;;;;;;0.50;0.50;;;;;8.90;95656.00;;;;5049441;28;20197;-63
2023/04/11 03:09:13;;;;;;;0.50;0.50;;;;;9.00;95649.00;;;;5034384;28;20683;-63
2023/04/11 03:11:41;;;;;;;0.50;0.50;;;;;9.00;95629.00;;;;5034023;28;20219;-63
2023/04/11 03:14:08;;;;;;;0.57;0.57;;;;;8.90;95635.00;;;;5034208;28;20220;-64
2023/04/11 03:16:36;;;;;;;0.60;0.60;;;;;8.90;95623.00;;;;5034509;28;20250;-63
2023/04/11 03:19:04;;;;;;;0.60;0.60;;;;;8.80;95610.00;;;;5049152;28;20227;-63
2023/04/11 03:21:32;;;;;;;0.60;0.60;;;;;8.70;95608.00;;;;5033824;28;20200;-63
2023/04/11 03:23:59;;;;;;;0.60;0.60;;;;;8.60;95605.00;;;;5033711;28;20267;-63
2023/04/11 03:26:28;;;;;;;0.60;0.60;;;;;8.80;95607.00;;;;5033788;28;20199;-64
2023/04/11 03:28:56;;;;;;;0.47;0.47;;;;;8.90;95603.00;;;;5033772;28;20660;-64
2023/04/11 03:31:23;;;;;;;0.53;0.53;;;;;9.00;95608.00;;;;5033638;28;20227;-63
2023/04/11 03:33:50;;;;;;;0.50;0.50;;;;;8.90;95597.00;;;;5033741;28;20715;-64
2023/04/11 03:36:18;;;;;;;0.50;0.50;;;;;9.10;95597.00;;;;5033609;28;20628;-64
2023/04/11 03:38:45;;;;;;;0.70;0.70;;;;;9.10;95604.00;;;;5033522;28;20228;-63
2023/04/11 03:41:13;;;;;;;0.60;0.60;;;;;9.20;95595.00;;;;5033630;28;20185;-64
2023/04/11 03:43:41;;;;;;;0.70;0.70;;;;;9.20;95607.00;;;;5033368;28;20196;-63
2023/04/11 03:46:09;;;;;;;2.33;0.93;;;;;9.10;95612.00;;;;5032886;28;20185;-64
2023/04/11 03:48:36;;;;;;;0.60;0.60;;;;;9.00;95619.00;;;;5033431;28;20251;-64
2023/04/11 03:51:04;;;;;;;0.60;0.60;;;;;8.90;95621.00;;;;5048724;28;20614;-63
2023/04/11 03:53:31;;;;;;;0.50;0.50;;;;;8.80;95620.00;;;;5033255;28;20560;-64
2023/04/11 03:55:59;;;;;;;0.50;0.50;;;;;8.80;95617.00;;;;5033592;28;20278;-64
2023/04/11 03:58:26;;;;;;;0.50;0.50;;;;;8.80;95632.00;;;;5033211;28;20252;-63
2023/04/11 04:00:55;;;;;;;0.60;0.60;;;;;8.80;95632.00;;;;5033232;28;20192;-64
2023/04/11 04:03:22;;;;;;;0.50;0.50;;;;;9.10;95645.00;;;;5033223;28;20200;-63
2023/04/11 04:05:50;;;;;;;0.50;0.50;;;;;9.00;95655.00;;;;5033385;28;20219;-65
2023/04/11 04:08:17;;;;;;;0.60;0.60;;;;;8.80;95658.00;;;;5033135;28;20189;-63
2023/04/11 04:10:45;;;;;;;0.60;0.60;;;;;8.70;95655.00;;;;5033300;28;20610;-64
2023/04/11 04:13:13;;;;;;;0.70;0.70;;;;;8.60;95676.00;;;;5033093;28;20200;-64
2023/04/11 04:15:41;;;;;;;0.60;0.60;;;;;8.30;95662.00;;;;5032907;28;20275;-64
2023/04/11 04:18:09;;;;;;;0.80;0.80;;;;;8.20;95671.00;;;;5032941;28;20220;-64
2023/04/11 04:20:37;;;;;;;0.50;0.50;;;;;8.00;95671.00;;;;5048367;28;20668;-65
2023/04/11 04:23:04;;;;;;;0.67;0.67;;;;;8.00;95677.00;;;;5032978;28;20671;-69
2023/04/11 04:25:32;;;;;;;0.70;0.70;;;;;8.10;95679.00;;;;5032921;28;20216;-65
2023/04/11 04:27:59;;;;;;;0.43;0.43;;;;;8.00;95681.00;;;;5032866;28;20197;-64
2023/04/11 04:30:27;;;;;;;0.50;0.50;;;;;8.20;95680.00;;;;5033219;28;20195;-66
2023/04/11 04:32:57;;;;;;;0.60;0.60;;;;;8.20;95680.00;;;;5033172;28;20633;-64
2023/04/11 04:35:26;;;;;;;0.57;0.57;;;;;8.10;95698.00;;;;5033031;28;20576;-64
2023/04/11 04:37:54;;;;;;;0.50;0.50;;;;;8.00;95701.00;;;;5032873;28;20196;-65
2023/04/11 04:40:21;;;;;;;0.60;0.60;;;;;8.00;95697.00;;;;5048834;28;20212;-64
2023/04/11 04:42:56;;;;;;;0.60;0.60;;;;;7.90;95706.00;;;;5032757;28;20196;-64
2023/04/11 04:45:25;;;;;;;0.50;0.50;;;;;7.80;95710.00;;;;5032571;28;20236;-63
2023/04/11 04:47:52;;;;;;;0.50;0.50;;;;;8.00;95719.00;;;;5032639;28;20216;-64
2023/04/11 04:50:20;;;;;;;0.70;0.70;;;;;8.10;95724.00;;;;5032634;28;20656;-63
2023/04/11 04:52:48;;;;;;;0.50;0.50;;;;;8.00;95733.00;;;;5032526;28;20275;-63
2023/04/11 04:55:16;;;;;;;0.53;0.53;;;;;7.90;95752.00;;;;5032539;28;20212;-64
2023/04/11 04:57:43;;;;;;;0.50;0.50;;;;;7.70;95746.00;;;;5036651;28;20200;-64
2023/04/11 05:00:12;;;;;;;0.50;0.50;;;;;7.40;95767.00;;;;5036487;28;20216;-64
2023/04/11 05:02:39;;;;;;;0.53;0.53;;;;;7.30;95773.00;;;;5036469;28;20203;-65
2023/04/11 05:05:08;;;;;;;0.80;0.80;;;;;7.10;95790.00;;;;5036461;28;20218;-63
2023/04/11 05:07:36;;;;;;;0.67;0.67;;;;;7.20;95777.00;;;;5036426;28;20197;-64
2023/04/11 05:10:05;;;;;;;0.50;0.50;;;;;7.20;95774.00;;;;5036311;28;20224;-65
2023/04/11 05:12:32;;;;;;;0.50;0.50;;;;;7.10;95787.00;;;;5036388;28;20196;-64
2023/04/11 05:15:00;;;;;;;0.50;0.50;;;;;7.20;95790.00;;;;5036132;28;20218;-64
2023/04/11 05:17:28;;;;;;;0.50;0.50;;;;;7.10;95775.00;;;;5036491;28;20605;-64
2023/04/11 05:19:55;;;;;;;0.67;0.67;;;;;7.00;95790.00;;;;5036132;28;20228;-64
2023/04/11 05:22:23;;;;;;;0.70;0.70;;;;;6.80;95793.00;;;;5036368;28;20683;-65
2023/04/11 05:24:50;;;;;;;0.73;0.73;;;;;6.90;95779.00;;;;5035948;28;20301;-63
2023/04/11 05:27:19;;;;;;;0.63;0.63;;;;;6.70;95779.00;;;;5036073;28;20197;-64
2023/04/11 05:29:46;;;;;;;0.60;0.60;;;;;6.80;95776.00;;;;5035953;28;20189;-64
2023/04/11 05:32:14;;;;;;;0.63;0.63;;;;;6.60;95772.00;;;;5036010;28;20188;-64
2023/04/11 05:34:52;;;;;;;0.60;0.60;;;;;6.50;95780.00;;;;5036060;28;20212;-63
2023/04/11 05:37:20;;;;;;;0.60;0.60;;;;;6.50;95771.00;;;;5035965;28;20664;-65
2023/04/11 05:39:47;;;;;;;0.63;0.63;;;;;6.40;95770.00;;;;5035827;28;20684;-65
2023/04/11 05:42:17;;;;;;;0.60;0.60;;;;;6.60;95773.00;;;;5035919;28;20195;-64
2023/04/11 05:44:45;;;;;;;0.83;0.83;;;;;6.60;95772.00;;;;5058403;22;20312;-62
2023/04/11 05:47:13;;;;;;;0.57;0.57;;;;;6.60;95756.00;;;;5075674;28;20179;-61
2023/04/11 05:49:40;;;;;;;0.50;0.50;;;;;6.60;95761.00;;;;5075829;28;20569;-62
2023/04/11 05:52:08;;;;;;;0.70;0.70;;;;;6.80;95768.00;;;;5074248;28;20654;-62
2023/04/11 05:54:36;;;;;;;0.60;0.60;;;;;6.70;95747.00;;;;5075703;28;20218;-65
2023/04/11 05:57:06;;;;;;;0.63;0.63;;;;;6.80;95767.00;;;;5071799;28;20203;-64
2023/04/11 05:59:34;;;;;;;0.60;0.60;;;;;6.90;95756.00;;;;5070637;28;20300;-65
2023/04/11 06:02:03;;;;;;;0.50;0.50;;;;;6.80;95765.00;;;;5067506;28;20264;-64
2023/04/11 06:04:31;;;;;;;0.60;0.60;;;;;6.80;95771.00;;;;5073689;28;20281;-64
2023/04/11 06:06:58;;;;;;;0.57;0.57;;;;;7.00;95770.00;;;;5073087;28;20281;-63
2023/04/11 06:09:26;;;;;;;0.70;0.70;;;;;6.90;95775.00;;;;5073077;28;20777;-63
2023/04/11 06:11:56;;;;;;;0.57;0.57;;;;;6.80;95780.00;;;;5073360;28;20723;-64
2023/04/11 06:14:23;;;;;;;0.60;0.60;;;;;6.90;95767.00;;;;5073366;28;20196;-64
2023/04/11 06:16:51;;;;;;;0.77;0.77;;;;;6.90;95773.00;;;;5073325;28;20195;-63
2023/04/11 06:19:19;;;;;;;0.50;0.50;;;;;6.80;95779.00;;;;5073201;28;20215;-64
2023/04/11 06:21:47;;;;;;;1.03;1.03;;;;;6.70;95781.00;;;;5073222;28;20200;-64
2023/04/11 06:24:17;;;;;;;0.60;0.60;;;;;6.90;95793.00;;;;5073159;28;20711;-64
2023/04/11 06:26:44;;;;;;;0.60;0.60;;;;;6.70;95790.00;;;;5071718;28;20208;-64
2023/04/11 06:29:11;;;;;;;0.53;0.53;;;;;6.90;95788.00;;;;5073118;28;20191;-64
2023/04/11 06:31:40;;;;;;;1.03;0.90;;;;;7.10;95799.00;;;;5072083;28;20210;-64
2023/04/11 06:34:08;;;;;;;0.70;0.70;;;;;6.90;95808.00;;;;5073270;28;20542;-63
2023/04/11 06:36:36;;;;;;;1.40;1.07;;;;;6.90;95807.00;;;;5073161;28;20195;-64
2023/04/11 06:39:05;;;;;;;0.60;0.60;;;;;7.10;95797.00;;;;5073035;28;20325;-64
2023/04/11 06:41:33;;;;;;;0.60;0.60;;;;;7.30;95820.00;;;;5073006;28;20207;-64
2023/04/11 06:44:00;;;;;;;0.70;0.70;;;;;7.30;95819.00;;;;5072751;28;20198;-63
2023/04/11 06:46:28;;;;;;;0.50;0.50;;;;;7.30;95815.00;;;;5071614;28;20335;-64
2023/04/11 06:48:55;;;;;;;0.70;0.70;;;;;7.10;95828.00;;;;5072944;28;20230;-63
2023/04/11 06:51:23;;;;;;;18.33;0.87;;;;;7.10;95817.00;;;;5072830;28;20198;-63
2023/04/11 06:53:53;;;;;;;0.53;0.53;;;;;7.30;95823.00;;;;5072576;28;20203;-63
2023/04/11 06:56:20;;;;;;;10.50;1.47;;;;;7.20;95825.00;;;;5072777;28;20242;-63
2023/04/11 06:58:48;;;;;;;0.60;0.60;;;;;7.20;95823.00;;;;5072561;28;20202;-62
2023/04/11 07:01:15;;;;;;;1.57;1.50;;;;;7.40;95818.00;;;;5072522;28;20202;-64
2023/04/11 07:03:42;;;;;;;1.23;1.00;;;;;7.50;95826.00;;;;5072458;28;20195;-63
2023/04/11 07:06:10;;;;;;;1.27;1.27;;;;;7.60;95820.00;;;;5072387;28;20216;-64
2023/04/11 07:08:38;;;;;;;0.73;0.73;;;;;7.60;95814.00;;;;5072160;28;20203;-64
2023/04/11 07:11:07;;;;;;;0.60;0.60;;;;;7.70;95843.00;;;;5072410;28;20199;-63
2023/04/11 07:13:34;;;;;;;0.67;0.67;;;;;7.60;95853.00;;;;5072207;28;20204;-63
2023/04/11 07:16:02;;;;;;;0.60;0.60;;;;;7.60;95861.00;;;;5072272;28;20242;-63
2023/04/11 07:18:31;;;;;;;0.60;0.60;;;;;7.60;95867.00;;;;5071886;28;20217;-62
2023/04/11 07:20:58;;;;;;;1.10;1.10;;;;;7.90;95871.00;;;;5072030;28;20226;-64
2023/04/11 07:23:26;;;;;;;0.50;0.50;;;;;8.00;95852.00;;;;5072161;28;20204;-64
2023/04/11 07:25:54;;;;;;;1.10;1.10;;;;;7.90;95856.00;;;;5072066;28;20242;-64
2023/04/11 07:28:23;;;;;;;1.27;1.27;;;;;7.90;95841.00;;;;5072040;28;20250;-64
2023/04/11 07:30:51;;;;;;;8.60;0.97;;;;;7.80;95840.00;;;;5071951;28;20187;-63
2023/04/11 07:33:19;;;;;;;0.60;0.60;;;;;8.10;95846.00;;;;5072054;28;20677;-65
2023/04/11 07:35:47;;;;;;;0.63;0.63;;;;;8.40;95849.00;;;;5071881;28;20222;-63
2023/04/11 07:38:28;;;;;;;1.40;0.87;;;;;8.70;95847.00;;;;5071943;28;20198;-64
2023/04/11 07:40:56;;;;;;;0.80;0.80;;;;;8.60;95840.00;;;;5067435;28;20207;-63
2023/04/11 07:43:27;;;;;;;0.50;0.50;;;;;8.40;95861.00;;;;5071811;28;20727;-64
2023/04/11 07:45:56;;;;;;;0.50;0.50;;;;;8.30;95844.00;;;;5071674;28;20230;-62
2023/04/11 07:48:25;;;;;;;0.57;0.57;;;;;8.70;95862.00;;;;5071547;28;20199;-64
2023/04/11 07:50:53;;;;;;;0.60;0.60;;;;;8.30;95867.00;;;;5071618;28;20196;-65
2023/04/11 07:53:21;;;;;;;0.70;0.70;;;;;8.50;95847.00;;;;5071547;28;20207;-63
2023/04/11 07:55:48;;;;;;;0.60;0.60;;;;;8.60;95859.00;;;;5071443;28;20658;-64
2023/04/11 07:58:16;;;;;;;0.80;0.80;;;;;8.50;95868.00;;;;5071492;28;20207;-64
2023/04/11 08:00:44;;;;;;;0.70;0.70;;;;;8.90;95874.00;;;;5071359;28;20709;-63
2023/04/11 08:03:12;;;;;;;0.90;0.90;;;;;9.10;95863.00;;;;5071357;28;20225;-63
2023/04/11 08:05:40;;;;;;;1.03;0.97;;;;;8.70;95870.00;;;;5071291;28;20215;-63
2023/04/11 08:08:08;;;;;;;0.60;0.60;;;;;8.80;95888.00;;;;5071341;28;20192;-64
2023/04/11 08:10:35;;;;;;;1.90;1.67;;;;;8.80;95880.00;;;;5071077;28;20206;-62
2023/04/11 08:13:02;;;;;;;0.60;0.60;;;;;8.80;95884.00;;;;5069799;28;20294;-63
2023/04/11 08:15:30;;;;;;;0.70;0.70;;;;;8.90;95874.00;;;;5071173;28;20223;-63
2023/04/11 08:17:59;;;;;;;0.70;0.70;;;;;9.30;95887.00;;;;5071237;28;20196;-64
2023/04/11 08:20:26;;;;;;;0.53;0.53;;;;;8.50;95895.00;;;;5071148;28;20227;-64
2023/04/11 08:22:54;;;;;;;0.67;0.67;;;;;9.00;95890.00;;;;5071164;28;20215;-63
2023/04/11 08:25:22;;;;;;;1.00;1.00;;;;;9.00;95893.00;;;;5071438;28;20268;-64
2023/04/11 08:27:50;;;;;;;0.50;0.50;;;;;8.30;95904.00;;;;5070066;28;20222;-64
2023/04/11 08:30:18;;;;;;;0.60;0.60;;;;;8.00;95885.00;;;;5072230;28;21416;-63
2023/04/11 08:32:45;;;;;;;0.67;0.67;;;;;7.90;95902.00;;;;5076510;28;20281;-62
2023/04/11 08:35:14;;;;;;;0.50;0.50;;;;;8.40;95894.00;;;;5077759;28;20238;-64
2023/04/11 08:37:43;;;;;;;0.80;0.80;;;;;8.30;95891.00;;;;5078038;28;20574;-64
2023/04/11 08:40:11;;;;;;;1.17;1.17;;;;;8.50;95906.00;;;;5077712;28;20321;-64
2023/04/11 08:42:38;;;;;;;0.60;0.60;;;;;8.60;95895.00;;;;5077733;28;20203;-64
2023/04/11 08:45:09;;;;;;;0.50;0.50;;;;;8.80;95896.00;;;;5077717;28;20229;-62
2023/04/11 08:47:36;;;;;;;0.70;0.70;;;;;8.70;95891.00;;;;5077694;28;20282;-63
2023/04/11 08:50:04;;;;;;;0.60;0.60;;;;;9.00;95879.00;;;;5077765;28;20191;-64
2023/04/11 08:52:33;;;;;;;0.60;0.60;;;;;9.20;95880.00;;;;5076224;28;20195;-63
2023/04/11 08:55:01;;;;;;;0.70;0.70;;;;;9.30;95891.00;;;;5077794;28;20664;-64
2023/04/11 08:57:30;;;;;;;0.50;0.50;;;;;9.60;95871.00;;;;5077287;28;20198;-64
2023/04/11 09:00:01;;;;;;;0.90;0.90;;;;;9.60;95880.00;;;;5077576;28;20249;-63
2023/04/11 09:02:29;;;;;;;0.70;0.70;;;;;9.50;95875.00;;;;5077752;28;20217;-64
2023/04/11 09:04:57;;;;;;;0.90;0.90;;;;;9.20;95877.00;;;;5078158;28;20313;-64
2023/04/11 09:07:25;;;;;;;0.60;0.60;;;;;9.00;95883.00;;;;5077952;28;20203;-63
2023/04/11 09:09:54;;;;;;;1.90;0.90;;;;;9.00;95900.00;;;;5077605;28;20670;-63
2023/04/11 09:12:29;;;;;;;0.50;0.50;;;;;8.80;95885.00;;;;5077474;28;20198;-63
2023/04/11 09:14:57;;;;;;;0.87;0.87;;;;;8.90;95917.00;;;;5077590;28;20237;-64
2023/04/11 09:17:24;;;;;;;0.60;0.60;;;;;9.00;95906.00;;;;5077537;28;20195;-64
2023/04/11 09:19:51;;;;;;;0.50;0.50;;;;;8.80;95896.00;;;;5077329;28;20219;-63
2023/04/11 09:22:19;;;;;;;1.57;1.53;;;;;9.00;95906.00;;;;5077359;28;20360;-63
2023/04/11 09:25:03;;;;;;;0.50;0.50;;;;;8.70;95921.00;;;;5077356;28;20222;-64
2023/04/11 09:27:31;;;;;;;0.60;0.60;;;;;8.50;95918.00;;;;5077347;28;20203;-63
2023/04/11 09:30:00;;;;;;;0.60;0.60;;;;;8.70;95919.00;;;;5077399;28;20199;-63
2023/04/11 09:32:29;;;;;;;0.50;0.50;;;;;8.80;95906.00;;;;5075934;28;20686;-65
2023/04/11 09:35:09;;;;;;;9.10;0.90;;;;;8.90;95909.00;;;;5077276;28;20221;-63
2023/04/11 09:37:48;;;;;;;0.63;0.63;;;;;9.00;95912.00;;;;5073687;28;20191;-63
2023/04/11 09:40:19;;;;;;;0.60;0.60;;;;;9.10;95903.00;;;;5077338;28;20217;-63
2023/04/11 09:42:47;;;;;;;0.50;0.50;;;;;9.10;95904.00;;;;5075380;28;20742;-63
2023/04/11 09:45:19;;;;;;;0.80;0.80;;;;;9.30;95894.00;;;;5073791;28;20219;-63
2023/04/11 09:47:48;;;;;;;0.60;0.60;;;;;9.70;95894.00;;;;5073993;28;20195;-63
2023/04/11 09:50:16;;;;;;;0.60;0.60;;;;;10.10;95888.00;;;;5073972;28;20687;-63
2023/04/11 09:52:45;;;;;;;0.50;0.50;;;;;9.90;95906.00;;;;5073846;28;20674;-64
2023/04/11 09:55:15;;;;;;;0.50;0.50;;;;;10.10;95894.00;;;;5074012;28;20231;-64
2023/04/11 09:57:46;;;;;;;2.97;1.20;;;;;8.90;95902.00;;;;5072450;28;20199;-64
2023/04/11 10:00:15;;;;;;;0.90;0.90;;;;;8.50;95899.00;;;;5069128;28;20211;-63
2023/04/11 10:02:44;;;;;;;0.60;0.60;;;;;9.10;95895.00;;;;5073703;28;20603;-63
2023/04/11 10:05:13;;;;;;;0.60;0.60;;;;;9.30;95901.00;;;;5072529;28;20566;-63
2023/04/11 10:07:47;;;;;;;0.80;0.80;;;;;9.30;95904.00;;;;5072871;28;20202;-63
2023/04/11 10:10:19;;;;;;;0.97;0.97;;;;;9.50;95907.00;;;;5072376;28;20203;-63
2023/04/11 10:12:49;;;;;;;0.60;0.60;;;;;9.30;95914.00;;;;5073579;28;20199;-65
2023/04/11 10:15:17;;;;;;;1.80;1.70;;;;;9.70;95916.00;;;;5073405;28;20220;-62
2023/04/11 10:18:08;;;;;;;0.60;0.60;;;;;9.50;95919.00;;;;5073605;28;20199;-63
2023/04/11 10:20:48;;;;;;;0.90;0.90;;;;;9.70;95910.00;;;;5073378;28;20344;-62
2023/04/11 10:23:16;;;;;;;0.80;0.80;;;;;9.50;95936.00;;;;5073487;28;20282;-64
2023/04/11 10:25:55;;;;;;;0.70;0.70;;;;;9.10;95934.00;;;;5073212;28;20219;-62
2023/04/11 10:28:38;;;;;;;2.03;1.87;;;;;8.60;95947.00;;;;5073168;28;20187;-64
2023/04/11 10:31:12;;;;;;;0.60;0.60;;;;;8.60;95929.00;;;;5073522;28;20209;-63
2023/04/11 10:33:40;;;;;;;0.70;0.70;;;;;8.80;95920.00;;;;5073161;28;20261;-63
2023/04/11 10:36:09;;;;;;;0.67;0.67;;;;;8.80;95934.00;;;;5073245;28;20574;-63
2023/04/11 10:38:47;;;;;;;0.63;0.63;;;;;9.30;95917.00;;;;5071717;28;20698;-64
2023/04/11 10:41:19;;;;;;;0.47;0.47;;;;;9.80;95915.00;;;;5072894;28;20219;-64
2023/04/11 10:43:49;;;;;;;0.67;0.67;;;;;10.00;95882.00;;;;5073239;28;20270;-64
2023/04/11 10:46:21;;;;;;;0.53;0.53;;;;;9.90;95919.00;;;;5073087;28;20273;-63
2023/04/11 10:48:59;;;;;;;0.50;0.50;;;;;10.00;95909.00;;;;5072773;28;20195;-66
2023/04/11 10:51:27;;;;;;;0.70;0.70;;;;;10.30;95902.00;;;;5072831;28;20195;-64
2023/04/11 10:53:58;;;;;;;0.60;0.60;;;;;10.50;95900.00;;;;5071044;28;20199;-64
2023/04/11 10:56:56;;;;;;;0.60;0.60;;;;;10.60;95915.00;;;;5072963;28;20280;-64
2023/04/11 10:59:58;;;;;;;0.63;0.63;;;;;10.10;95886.00;;;;5066902;28;20203;-63
2023/04/11 11:02:39;;;;;;;0.50;0.50;;;;;10.10;95902.00;;;;5030408;28;20204;-64
2023/04/11 11:05:20;;;;;;;1.43;1.33;;;;;10.20;95905.00;;;;5030398;28;20224;-64
2023/04/11 11:07:49;;;;;;;0.50;0.50;;;;;10.60;95893.00;;;;5057872;28;20211;-64
2023/04/11 11:10:32;;;;;;;1.50;1.03;;;;;10.80;95910.00;;;;5072496;28;20196;-63
2023/04/11 11:12:59;;;;;;;0.53;0.53;;;;;11.00;95901.00;;;;5072137;28;20276;-63
2023/04/11 11:15:28;;;;;;;0.70;0.70;;;;;11.70;95915.00;;;;5072086;28;20223;-63
2023/04/11 11:17:55;;;;;;;0.60;0.60;;;;;10.50;95930.00;;;;5072470;28;20585;-63
2023/04/11 11:20:23;;;;;;;0.50;0.50;;;;;10.70;95902.00;;;;5072069;28;20219;-63
2023/04/11 11:23:01;;;;;;;1.07;1.07;;;;;10.70;95907.00;;;;5071039;28;20556;-64
2023/04/11 11:25:28;;;;;;;0.60;0.60;;;;;10.80;95917.00;;;;5072020;28;20219;-63
2023/04/11 11:28:03;;;;;;;0.60;0.60;;;;;10.80;95912.00;;;;5071916;28;20663;-64
2023/04/11 11:30:33;;;;;;;0.60;0.60;;;;;11.00;95905.00;;;;5072029;28;20183;-64
2023/04/11 11:33:13;;;;;;;0.70;0.70;;;;;10.60;95903.00;;;;5071961;28;20203;-63
2023/04/11 11:35:41;;;;;;;0.70;0.70;;;;;10.30;95904.00;;;;5072209;28;20329;-63
2023/04/11 11:38:09;;;;;;;0.60;0.60;;;;;10.10;95955.00;;;;5071895;28;20257;-64
2023/04/11 11:40:36;;;;;;;0.60;0.60;;;;;10.30;95899.00;;;;5071695;28;20219;-63
2023/04/11 11:43:04;;;;;;;0.50;0.50;;;;;9.90;95953.00;;;;5071762;28;20203;-62
2023/04/11 11:45:33;;;;;;;0.70;0.70;;;;;10.10;95936.00;;;;5083013;22;20236;-65
2023/04/11 11:48:01;;;;;;;0.60;0.60;;;;;10.40;95905.00;;;;5051784;28;20230;-64
2023/04/11 11:50:30;;;;;;;0.60;0.60;;;;;10.80;95913.00;;;;5051745;28;20192;-65
2023/04/11 11:53:12;;;;;;;1.10;1.10;;;;;10.90;95912.00;;;;5051954;28;20632;-64
2023/04/11 11:55:40;;;;;;;0.67;0.67;;;;;10.80;95936.00;;;;5026239;28;20281;-65
2023/04/11 11:58:07;;;;;;;0.67;0.67;;;;;10.50;95903.00;;;;5031891;28;20718;-65
2023/04/11 12:00:41;;;;;;;0.63;0.63;;;;;10.90;95917.00;;;;5031738;28;20278;-65
2023/04/11 12:03:09;;;;;;;0.70;0.70;;;;;11.00;95888.00;;;;5031530;28;20193;-65
2023/04/11 12:05:37;;;;;;;0.67;0.67;;;;;11.70;95896.00;;;;5030629;28;20270;-65
2023/04/11 12:08:07;;;;;;;1.17;1.17;;;;;11.40;95897.00;;;;5031469;28;20196;-65
2023/04/11 12:10:40;;;;;;;0.70;0.70;;;;;11.40;95896.00;;;;5031423;28;20180;-65
2023/04/11 12:13:14;;;;;;;0.73;0.73;;;;;11.50;95893.00;;;;5031446;28;20197;-65
2023/04/11 12:15:46;;;;;;;0.70;0.70;;;;;11.30;95879.00;;;;5031372;28;20215;-65
2023/04/11 12:18:13;;;;;;;0.67;0.67;;;;;11.50;95886.00;;;;5031433;28;20193;-65
2023/04/11 12:20:41;;;;;;;0.60;0.60;;;;;10.80;95941.00;;;;5031210;28;20227;-65
2023/04/11 12:23:08;;;;;;;0.93;0.93;;;;;11.40;95922.00;;;;5031332;28;20193;-65
2023/04/11 12:25:36;;;;;;;4.27;0.83;;;;;11.30;95897.00;;;;5031448;28;20651;-64
2023/04/11 12:28:03;;;;;;;0.77;0.77;;;;;10.90;95894.00;;;;5031279;28;20196;-64
2023/04/11 12:30:31;;;;;;;6.10;0.83;;;;;11.10;95906.00;;;;5013379;28;20668;-65
2023/04/11 12:33:00;;;;;;;0.90;0.90;;;;;11.20;95902.00;;;;5031217;28;20201;-65